Time,TemperatureF,DewpointF,PressureIn,WindDirection,WindDirectionDegrees,WindSpeedMPH,WindSpeedGustMPH,Humidity,HourlyPrecipIn,Conditions,Clouds,dailyrainin,SoftwareType,DateUTC
2013-01-31 00:03:00,42.1,39.6,30.29,SSE,158,0.0,0.0,91,0.02,,,0.01,WUHU216HW,2013-01-31 08:03:00,
2013-01-31 00:08:00,42.1,39.6,30.30,SSE,158,0.0,0.0,91,0.02,,,0.01,WUHU216HW,2013-01-31 08:08:00,
2013-01-31 00:13:00,42.1,39.6,30.29,SSE,158,0.0,0.0,91,0.01,,,0.01,WUHU216HW,2013-01-31 08:13:00,
2013-01-31 00:18:00,42.1,39.6,30.30,East,90,0.0,0.9,91,0.01,,,0.01,WUHU216HW,2013-01-31 08:18:00,
2013-01-31 00:23:00,42.1,39.6,30.30,East,90,0.0,0.9,91,0.01,,,0.01,WUHU216HW,2013-01-31 08:23:00,
2013-01-31 00:28:00,42.1,39.6,30.30,East,90,0.0,0.0,91,0.02,,,0.02,WUHU216HW,2013-01-31 08:28:00,
2013-01-31 00:33:00,42.1,39.6,30.30,East,90,0.0,0.0,91,0.02,,,0.02,WUHU216HW,2013-01-31 08:33:00,
2013-01-31 00:38:00,42.1,39.6,30.30,East,90,0.0,0.0,91,0.03,,,0.03,WUHU216HW,2013-01-31 08:38:00,
2013-01-31 00:43:00,42.1,39.6,30.30,East,90,0.0,0.0,91,0.03,,,0.03,WUHU216HW,2013-01-31 08:43:00,
2013-01-31 00:48:00,42.1,39.6,30.30,SE,135,0.0,0.2,91,0.03,,,0.03,WUHU216HW,2013-01-31 08:48:00,
2013-01-31 00:53:00,42.1,39.6,30.30,SE,135,0.0,0.2,91,0.03,,,0.03,WUHU216HW,2013-01-31 08:53:00,
2013-01-31 00:58:00,42.1,39.6,30.30,SE,135,0.0,0.4,91,0.03,,,0.03,WUHU216HW,2013-01-31 08:58:00,
2013-01-31 01:03:00,42.1,39.6,30.30,SE,135,0.0,0.4,91,0.02,,,0.03,WUHU216HW,2013-01-31 09:03:00,
2013-01-31 01:08:00,42.1,39.6,30.30,SSW,203,0.0,0.9,91,0.02,,,0.03,WUHU216HW,2013-01-31 09:08:00,
2013-01-31 01:13:00,42.1,39.6,30.30,SSW,203,0.0,0.9,91,0.03,,,0.04,WUHU216HW,2013-01-31 09:13:00,
2013-01-31 01:18:00,42.1,39.6,30.30,WSW,248,0.0,0.4,91,0.03,,,0.04,WUHU216HW,2013-01-31 09:18:00,
2013-01-31 01:23:00,41.9,39.4,30.30,SW,225,0.7,0.7,91,0.03,,,0.04,WUHU216HW,2013-01-31 09:23:00,
2013-01-31 01:28:00,41.9,39.4,30.30,SW,225,0.0,0.7,91,0.02,,,0.04,WUHU216HW,2013-01-31 09:28:00,
2013-01-31 01:33:00,41.9,39.4,30.31,SW,225,0.0,1.1,91,0.02,,,0.05,WUHU216HW,2013-01-31 09:33:00,
2013-01-31 01:38:00,41.9,39.7,30.31,WSW,248,0.0,1.1,92,0.03,,,0.06,WUHU216HW,2013-01-31 09:38:00,
2013-01-31 01:43:00,41.9,39.7,30.31,WSW,248,0.0,0.2,92,0.03,,,0.06,WUHU216HW,2013-01-31 09:43:00,
2013-01-31 01:48:00,41.9,39.7,30.31,WSW,248,0.0,0.0,92,0.04,,,0.07,WUHU216HW,2013-01-31 09:48:00,
2013-01-31 01:53:00,41.9,39.7,30.31,WSW,248,0.0,0.0,92,0.04,,,0.07,WUHU216HW,2013-01-31 09:53:00,
2013-01-31 01:58:00,41.9,39.7,30.31,ESE,113,0.0,1.1,92,0.05,,,0.08,WUHU216HW,2013-01-31 09:58:00,
2013-01-31 02:03:00,42.1,39.9,30.31,ESE,113,0.0,1.1,92,0.05,,,0.08,WUHU216HW,2013-01-31 10:03:00,
2013-01-31 02:08:00,41.9,39.7,30.31,East,90,0.0,0.0,92,0.05,,,0.09,WUHU216HW,2013-01-31 10:08:00,
2013-01-31 02:14:00,41.9,39.7,30.32,South,180,1.3,1.3,92,0.06,,,0.10,WUHU216HW,2013-01-31 10:14:00,
2013-01-31 02:15:00,41.9,39.7,30.31,South,180,0.4,1.3,92,0.06,,,0.10,WUHU216HW,2013-01-31 10:15:00,
2013-01-31 02:16:00,41.9,39.7,30.31,SSE,158,0.0,1.3,92,0.07,,,0.10,WUHU216HW,2013-01-31 10:16:00,
2013-01-31 02:17:00,41.9,39.7,30.31,SSE,158,0.0,1.3,92,0.07,,,0.11,WUHU216HW,2013-01-31 10:17:00,
2013-01-31 02:18:00,41.9,39.7,30.31,SSE,158,0.0,1.3,92,0.07,,,0.11,WUHU216HW,2013-01-31 10:18:00,
2013-01-31 02:19:00,41.9,39.7,30.31,SSE,158,0.0,1.3,92,0.07,,,0.11,WUHU216HW,2013-01-31 10:19:00,
2013-01-31 02:20:00,41.9,39.7,30.32,SSE,158,0.0,1.3,92,0.07,,,0.11,WUHU216HW,2013-01-31 10:20:00,
2013-01-31 02:21:00,41.9,39.7,30.31,SSE,158,0.0,1.3,92,0.07,,,0.11,WUHU216HW,2013-01-31 10:21:00,
2013-01-31 02:22:00,41.9,39.7,30.31,SSE,158,0.0,1.3,92,0.07,,,0.11,WUHU216HW,2013-01-31 10:22:00,
2013-01-31 02:23:00,41.9,39.7,30.31,SE,135,0.0,0.7,92,0.07,,,0.11,WUHU216HW,2013-01-31 10:23:00,
2013-01-31 02:24:00,41.9,39.7,30.31,SE,135,0.0,0.4,92,0.07,,,0.11,WUHU216HW,2013-01-31 10:24:00,
2013-01-31 02:25:00,41.9,39.7,30.31,ESE,113,0.0,0.0,92,0.07,,,0.11,WUHU216HW,2013-01-31 10:25:00,
2013-01-31 02:26:00,41.7,39.5,30.31,ESE,113,0.0,0.0,92,0.08,,,0.11,WUHU216HW,2013-01-31 10:26:00,
2013-01-31 02:27:00,41.7,39.5,30.31,ESE,113,0.0,0.0,92,0.08,,,0.12,WUHU216HW,2013-01-31 10:27:00,
2013-01-31 02:28:00,41.7,39.5,30.31,ESE,113,0.0,0.0,92,0.07,,,0.12,WUHU216HW,2013-01-31 10:28:00,
2013-01-31 02:29:00,41.7,39.5,30.31,ESE,113,0.2,0.2,92,0.07,,,0.12,WUHU216HW,2013-01-31 10:29:00,
2013-01-31 02:30:00,41.7,39.5,30.32,ESE,113,0.0,0.2,92,0.07,,,0.12,WUHU216HW,2013-01-31 10:30:00,
2013-01-31 02:31:00,41.7,39.5,30.32,ESE,113,0.0,0.2,92,0.07,,,0.12,WUHU216HW,2013-01-31 10:31:00,
2013-01-31 02:32:00,41.7,39.5,30.31,ESE,113,0.0,0.2,92,0.07,,,0.12,WUHU216HW,2013-01-31 10:32:00,
2013-01-31 02:33:00,41.7,39.5,30.31,ESE,113,0.0,0.2,92,0.07,,,0.12,WUHU216HW,2013-01-31 10:33:00,
2013-01-31 02:34:00,41.7,39.5,30.31,SE,135,0.0,0.2,92,0.07,,,0.12,WUHU216HW,2013-01-31 10:34:00,
2013-01-31 02:35:00,41.7,39.5,30.31,SE,135,0.0,0.2,92,0.07,,,0.12,WUHU216HW,2013-01-31 10:35:00,
2013-01-31 02:36:00,41.7,39.5,30.31,SE,135,0.0,0.2,92,0.06,,,0.12,WUHU216HW,2013-01-31 10:36:00,
2013-01-31 02:37:00,41.9,39.7,30.31,East,90,0.2,0.2,92,0.06,,,0.12,WUHU216HW,2013-01-31 10:37:00,
2013-01-31 02:38:00,41.9,39.7,30.31,ENE,68,0.0,0.2,92,0.06,,,0.12,WUHU216HW,2013-01-31 10:38:00,
2013-01-31 02:39:00,41.9,39.7,30.31,ENE,68,0.0,0.2,92,0.07,,,0.12,WUHU216HW,2013-01-31 10:39:00,
2013-01-31 02:40:00,41.9,39.7,30.31,ENE,68,0.0,0.2,92,0.07,,,0.13,WUHU216HW,2013-01-31 10:40:00,
2013-01-31 02:41:00,41.9,39.7,30.31,ENE,68,0.0,0.2,92,0.07,,,0.13,WUHU216HW,2013-01-31 10:41:00,
2013-01-31 02:42:00,41.9,39.7,30.31,ENE,68,0.0,0.2,92,0.07,,,0.13,WUHU216HW,2013-01-31 10:42:00,
2013-01-31 02:43:00,41.9,39.7,30.31,ENE,68,0.2,0.2,92,0.07,,,0.13,WUHU216HW,2013-01-31 10:43:00,
2013-01-31 02:44:00,41.9,39.7,30.31,ENE,68,0.0,0.2,92,0.06,,,0.13,WUHU216HW,2013-01-31 10:44:00,
2013-01-31 02:45:00,41.9,39.7,30.31,ENE,68,0.4,0.4,92,0.06,,,0.13,WUHU216HW,2013-01-31 10:45:00,
2013-01-31 02:46:00,41.9,39.7,30.31,ENE,68,0.4,0.4,92,0.06,,,0.13,WUHU216HW,2013-01-31 10:46:00,
2013-01-31 03:00:00,41.9,40.0,30.31,ESE,113,1.6,1.6,93,0.06,,,0.13,WUHU216HW,2013-01-31 11:00:00,
2013-01-31 03:01:00,42.1,40.2,30.31,ESE,113,0.4,1.6,93,0.06,,,0.14,WUHU216HW,2013-01-31 11:01:00,
2013-01-31 03:02:00,41.9,40.0,30.31,ESE,113,0.4,1.6,93,0.06,,,0.14,WUHU216HW,2013-01-31 11:02:00,
2013-01-31 03:03:00,42.1,40.2,30.31,ESE,113,0.2,1.6,93,0.06,,,0.14,WUHU216HW,2013-01-31 11:03:00,
2013-01-31 03:04:00,42.1,40.2,30.31,ESE,113,0.4,1.6,93,0.05,,,0.14,WUHU216HW,2013-01-31 11:04:00,
2013-01-31 03:05:00,42.1,40.2,30.31,ESE,113,0.4,1.6,93,0.05,,,0.14,WUHU216HW,2013-01-31 11:05:00,
2013-01-31 03:06:00,42.1,40.2,30.31,ESE,113,1.1,1.6,93,0.05,,,0.14,WUHU216HW,2013-01-31 11:06:00,
2013-01-31 03:07:00,42.1,40.2,30.31,East,90,1.1,1.6,93,0.05,,,0.14,WUHU216HW,2013-01-31 11:07:00,
2013-01-31 03:08:00,42.1,40.2,30.31,East,90,1.6,1.6,93,0.04,,,0.14,WUHU216HW,2013-01-31 11:08:00,
2013-01-31 03:09:00,42.1,40.2,30.31,ESE,113,0.0,1.6,93,0.04,,,0.14,WUHU216HW,2013-01-31 11:09:00,
2013-01-31 03:10:00,42.1,40.2,30.31,ESE,113,1.1,1.6,93,0.04,,,0.14,WUHU216HW,2013-01-31 11:10:00,
2013-01-31 03:11:00,42.1,40.2,30.31,East,90,0.9,1.6,93,0.04,,,0.14,WUHU216HW,2013-01-31 11:11:00,
2013-01-31 03:12:00,42.1,40.2,30.31,ESE,113,1.8,1.8,93,0.03,,,0.14,WUHU216HW,2013-01-31 11:12:00,
2013-01-31 03:13:00,42.1,40.2,30.31,ESE,113,1.1,1.8,93,0.03,,,0.14,WUHU216HW,2013-01-31 11:13:00,
2013-01-31 03:14:00,42.1,40.2,30.31,ESE,113,0.0,1.8,93,0.03,,,0.14,WUHU216HW,2013-01-31 11:14:00,
2013-01-31 03:15:00,42.1,40.2,30.31,SSE,158,0.0,1.8,93,0.03,,,0.14,WUHU216HW,2013-01-31 11:15:00,
2013-01-31 03:16:00,42.2,40.3,30.31,SSE,158,0.4,1.8,93,0.03,,,0.14,WUHU216HW,2013-01-31 11:16:00,
2013-01-31 03:17:00,42.2,40.3,30.31,SSE,158,0.2,1.8,93,0.03,,,0.14,WUHU216HW,2013-01-31 11:17:00,
2013-01-31 03:18:00,42.2,40.3,30.31,SSE,158,0.4,1.8,93,0.03,,,0.14,WUHU216HW,2013-01-31 11:18:00,
2013-01-31 03:19:00,42.2,40.3,30.31,SSE,158,0.2,1.8,93,0.03,,,0.14,WUHU216HW,2013-01-31 11:19:00,
2013-01-31 03:20:00,42.2,40.3,30.31,South,180,0.9,1.8,93,0.03,,,0.14,WUHU216HW,2013-01-31 11:20:00,
2013-01-31 03:21:00,42.2,40.3,30.31,SSW,203,1.1,1.8,93,0.03,,,0.14,WUHU216HW,2013-01-31 11:21:00,
2013-01-31 03:22:00,42.2,40.3,30.31,SSW,203,0.4,1.1,93,0.03,,,0.14,WUHU216HW,2013-01-31 11:22:00,
2013-01-31 03:23:00,42.2,40.3,30.31,SSW,203,0.0,1.1,93,0.03,,,0.14,WUHU216HW,2013-01-31 11:23:00,
2013-01-31 03:24:00,42.2,40.3,30.31,WSW,248,0.7,1.1,93,0.02,,,0.14,WUHU216HW,2013-01-31 11:24:00,
2013-01-31 03:25:00,42.2,40.3,30.31,NNW,338,1.1,1.1,93,0.02,,,0.14,WUHU216HW,2013-01-31 11:25:00,
2013-01-31 03:26:00,42.2,40.3,30.31,NW,315,1.1,1.1,93,0.02,,,0.14,WUHU216HW,2013-01-31 11:26:00,
2013-01-31 03:27:00,42.1,40.2,30.31,NNW,338,0.2,1.1,93,0.02,,,0.14,WUHU216HW,2013-01-31 11:27:00,
2013-01-31 03:28:00,42.1,40.2,30.31,North,0,0.4,1.1,93,0.02,,,0.14,WUHU216HW,2013-01-31 11:28:00,
2013-01-31 03:29:00,42.1,40.2,30.31,North,0,0.4,1.1,93,0.02,,,0.14,WUHU216HW,2013-01-31 11:29:00,
2013-01-31 03:30:00,42.1,40.2,30.31,North,0,0.2,1.1,93,0.02,,,0.14,WUHU216HW,2013-01-31 11:30:00,
2013-01-31 03:31:00,42.1,40.2,30.31,North,0,0.0,1.1,93,0.02,,,0.14,WUHU216HW,2013-01-31 11:31:00,
2013-01-31 03:32:00,42.1,40.2,30.31,North,0,0.0,1.1,93,0.02,,,0.14,WUHU216HW,2013-01-31 11:32:00,
2013-01-31 03:33:00,42.1,40.2,30.31,NNE,23,1.3,1.3,93,0.02,,,0.14,WUHU216HW,2013-01-31 11:33:00,
2013-01-31 03:34:00,42.1,40.2,30.31,NNE,23,0.9,1.3,93,0.02,,,0.14,WUHU216HW,2013-01-31 11:34:00,
2013-01-31 03:35:00,41.9,40.0,30.31,NNE,23,0.0,1.3,93,0.02,,,0.14,WUHU216HW,2013-01-31 11:35:00,
2013-01-31 03:36:00,41.9,40.0,30.31,NNE,23,0.0,1.3,93,0.01,,,0.14,WUHU216HW,2013-01-31 11:36:00,
2013-01-31 03:37:00,42.1,40.2,30.31,NNE,23,0.0,1.3,93,0.01,,,0.14,WUHU216HW,2013-01-31 11:37:00,
2013-01-31 03:38:00,42.1,40.2,30.31,ESE,113,0.4,1.3,93,0.02,,,0.14,WUHU216HW,2013-01-31 11:38:00,
2013-01-31 03:39:00,41.9,40.0,30.31,ESE,113,0.4,1.3,93,0.02,,,0.16,WUHU216HW,2013-01-31 11:39:00,
2013-01-31 03:40:00,42.1,40.2,30.31,SE,135,0.9,1.3,93,0.02,,,0.16,WUHU216HW,2013-01-31 11:40:00,
2013-01-31 03:41:00,42.1,40.2,30.31,SE,135,0.0,1.3,93,0.02,,,0.16,WUHU216HW,2013-01-31 11:41:00,
2013-01-31 03:42:00,42.1,40.2,30.31,SE,135,0.0,1.3,93,0.02,,,0.16,WUHU216HW,2013-01-31 11:42:00,
2013-01-31 03:43:00,42.1,40.2,30.31,SE,135,0.0,0.9,93,0.02,,,0.16,WUHU216HW,2013-01-31 11:43:00,
2013-01-31 03:44:00,42.1,40.2,30.31,ESE,113,0.2,0.9,93,0.02,,,0.16,WUHU216HW,2013-01-31 11:44:00,
2013-01-31 03:45:00,42.1,40.2,30.31,SE,135,0.4,0.9,93,0.02,,,0.16,WUHU216HW,2013-01-31 11:45:00,
2013-01-31 03:46:00,42.2,40.3,30.31,SE,135,0.0,0.9,93,0.02,,,0.16,WUHU216HW,2013-01-31 11:46:00,
2013-01-31 03:47:00,42.2,40.3,30.31,SE,135,0.0,0.9,93,0.02,,,0.16,WUHU216HW,2013-01-31 11:47:00,
2013-01-31 03:48:00,42.2,40.3,30.31,SE,135,0.0,0.9,93,0.01,,,0.16,WUHU216HW,2013-01-31 11:48:00,
2013-01-31 03:49:00,42.4,40.5,30.31,SE,135,0.0,0.9,93,0.01,,,0.16,WUHU216HW,2013-01-31 11:49:00,
2013-01-31 03:50:00,42.4,40.5,30.31,SE,135,0.0,0.4,93,0.01,,,0.16,WUHU216HW,2013-01-31 11:50:00,
2013-01-31 03:51:00,42.4,40.5,30.31,SE,135,0.0,0.4,93,0.01,,,0.16,WUHU216HW,2013-01-31 11:51:00,
2013-01-31 03:52:00,42.4,40.5,30.31,SE,135,0.0,0.4,93,0.01,,,0.16,WUHU216HW,2013-01-31 11:52:00,
2013-01-31 03:53:00,42.4,40.5,30.31,SE,135,0.0,0.4,93,0.01,,,0.16,WUHU216HW,2013-01-31 11:53:00,
2013-01-31 03:54:00,42.4,40.5,30.31,SE,135,0.4,0.4,93,0.01,,,0.16,WUHU216HW,2013-01-31 11:54:00,
2013-01-31 03:55:00,42.4,40.5,30.31,SE,135,0.0,0.4,93,0.01,,,0.16,WUHU216HW,2013-01-31 11:55:00,
2013-01-31 03:56:00,42.4,40.5,30.31,SE,135,0.0,0.4,93,0.02,,,0.16,WUHU216HW,2013-01-31 11:56:00,
2013-01-31 03:57:00,42.4,40.5,30.31,SE,135,0.0,0.4,93,0.02,,,0.16,WUHU216HW,2013-01-31 11:57:00,
2013-01-31 03:58:00,42.4,40.5,30.31,SE,135,0.2,0.4,93,0.02,,,0.16,WUHU216HW,2013-01-31 11:58:00,
2013-01-31 03:59:00,42.4,40.5,30.31,SE,135,0.0,0.4,93,0.02,,,0.16,WUHU216HW,2013-01-31 11:59:00,
2013-01-31 04:00:00,42.4,40.5,30.31,SE,135,0.2,0.4,93,0.02,,,0.16,WUHU216HW,2013-01-31 12:00:00,
2013-01-31 04:01:00,42.4,40.5,30.31,SE,135,0.0,0.4,93,0.02,,,0.16,WUHU216HW,2013-01-31 12:01:00,
2013-01-31 04:02:00,42.4,40.5,30.31,SE,135,0.0,0.4,93,0.02,,,0.16,WUHU216HW,2013-01-31 12:02:00,
2013-01-31 04:03:00,42.4,40.5,30.31,SE,135,0.0,0.4,93,0.02,,,0.16,WUHU216HW,2013-01-31 12:03:00,
2013-01-31 04:04:00,42.4,40.5,30.31,SE,135,0.0,0.2,93,0.02,,,0.16,WUHU216HW,2013-01-31 12:04:00,
2013-01-31 04:05:00,42.4,40.5,30.31,SE,135,0.0,0.2,93,0.02,,,0.16,WUHU216HW,2013-01-31 12:05:00,
2013-01-31 04:06:00,42.4,40.5,30.31,SE,135,0.0,0.2,93,0.02,,,0.16,WUHU216HW,2013-01-31 12:06:00,
2013-01-31 04:07:00,42.4,40.5,30.31,SSE,158,0.4,0.4,93,0.02,,,0.16,WUHU216HW,2013-01-31 12:07:00,
2013-01-31 04:08:00,42.4,40.5,30.31,SSE,158,0.2,0.4,93,0.02,,,0.16,WUHU216HW,2013-01-31 12:08:00,
2013-01-31 04:11:00,42.4,40.5,30.31,ESE,113,0.0,0.4,93,0.02,,,0.16,WUHU216HW,2013-01-31 12:11:00,
2013-01-31 04:16:00,42.4,40.5,30.31,ESE,113,0.0,0.4,93,0.02,,,0.16,WUHU216HW,2013-01-31 12:16:00,
2013-01-31 04:21:00,42.4,40.5,30.31,ESE,113,0.0,0.0,93,0.03,,,0.17,WUHU216HW,2013-01-31 12:21:00,
2013-01-31 04:26:00,42.4,40.5,30.31,ESE,113,0.2,1.1,93,0.03,,,0.17,WUHU216HW,2013-01-31 12:26:00,
2013-01-31 04:31:00,42.4,40.5,30.31,SSE,158,0.0,1.1,93,0.03,,,0.17,WUHU216HW,2013-01-31 12:31:00,
2013-01-31 04:36:00,42.4,40.5,30.30,NE,45,0.2,0.7,93,0.02,,,0.17,WUHU216HW,2013-01-31 12:36:00,
2013-01-31 04:41:00,42.4,40.5,30.31,NE,45,0.0,0.4,93,0.02,,,0.17,WUHU216HW,2013-01-31 12:41:00,
2013-01-31 04:46:00,42.4,40.5,30.31,NE,45,0.0,0.0,93,0.02,,,0.17,WUHU216HW,2013-01-31 12:46:00,
2013-01-31 04:51:00,42.4,40.5,30.30,NE,45,0.0,0.0,93,0.02,,,0.17,WUHU216HW,2013-01-31 12:51:00,
2013-01-31 04:56:00,42.4,40.5,30.30,NE,45,0.0,0.0,93,0.01,,,0.17,WUHU216HW,2013-01-31 12:56:00,
2013-01-31 05:01:00,42.4,40.5,30.30,ENE,68,0.0,0.0,93,0.01,,,0.17,WUHU216HW,2013-01-31 13:01:00,
2013-01-31 05:06:00,42.4,40.5,30.30,ENE,68,0.2,0.4,93,0.01,,,0.17,WUHU216HW,2013-01-31 13:06:00,
2013-01-31 05:11:00,42.4,40.5,30.30,ENE,68,0.0,0.4,93,0.01,,,0.17,WUHU216HW,2013-01-31 13:11:00,
2013-01-31 05:16:00,42.4,40.5,30.30,ESE,113,0.0,0.2,93,0.01,,,0.17,WUHU216HW,2013-01-31 13:16:00,
2013-01-31 05:21:00,42.4,40.5,30.30,ESE,113,0.0,0.2,93,0.01,,,0.18,WUHU216HW,2013-01-31 13:21:00,
2013-01-31 05:26:00,42.4,40.5,30.30,ESE,113,0.0,0.0,93,0.02,,,0.18,WUHU216HW,2013-01-31 13:26:00,
2013-01-31 05:31:00,42.4,40.5,30.29,SSE,158,0.0,0.4,93,0.02,,,0.19,WUHU216HW,2013-01-31 13:31:00,
2013-01-31 05:36:00,42.4,40.5,30.30,SSE,158,0.0,0.4,93,0.02,,,0.19,WUHU216HW,2013-01-31 13:36:00,
2013-01-31 05:41:00,42.4,40.5,30.29,ESE,113,0.0,0.2,93,0.02,,,0.19,WUHU216HW,2013-01-31 13:41:00,
2013-01-31 05:46:00,42.4,40.5,30.29,ESE,113,0.0,0.2,93,0.02,,,0.19,WUHU216HW,2013-01-31 13:46:00,
2013-01-31 05:51:00,42.4,40.5,30.29,ESE,113,0.0,0.0,93,0.02,,,0.19,WUHU216HW,2013-01-31 13:51:00,
2013-01-31 05:56:00,42.4,40.5,30.29,ESE,113,0.0,0.0,93,0.02,,,0.19,WUHU216HW,2013-01-31 13:56:00,
2013-01-31 06:01:00,42.4,40.5,30.29,ESE,113,0.0,0.0,93,0.02,,,0.19,WUHU216HW,2013-01-31 14:01:00,
2013-01-31 06:06:00,42.4,40.5,30.30,ESE,113,0.0,0.0,93,0.03,,,0.20,WUHU216HW,2013-01-31 14:06:00,
2013-01-31 06:11:00,42.4,40.5,30.30,East,90,0.0,0.2,93,0.03,,,0.20,WUHU216HW,2013-01-31 14:11:00,
2013-01-31 06:16:00,42.4,40.5,30.30,East,90,0.0,0.2,93,0.02,,,0.20,WUHU216HW,2013-01-31 14:16:00,
2013-01-31 06:21:00,42.4,40.5,30.30,East,90,0.0,0.0,93,0.02,,,0.20,WUHU216HW,2013-01-31 14:21:00,
2013-01-31 06:26:00,42.4,40.5,30.30,ESE,113,1.1,1.1,93,0.01,,,0.20,WUHU216HW,2013-01-31 14:26:00,
2013-01-31 06:31:00,42.4,40.5,30.29,ENE,68,0.4,1.1,93,0.01,,,0.20,WUHU216HW,2013-01-31 14:31:00,
2013-01-31 06:36:00,42.4,40.5,30.29,East,90,0.7,1.1,93,0.01,,,0.20,WUHU216HW,2013-01-31 14:36:00,
2013-01-31 06:41:00,42.2,40.0,30.29,SE,135,0.0,0.7,92,0.01,,,0.20,WUHU216HW,2013-01-31 14:41:00,
2013-01-31 06:46:00,42.2,40.3,30.29,SE,135,0.0,0.7,93,0.01,,,0.20,WUHU216HW,2013-01-31 14:46:00,
2013-01-31 06:51:00,42.2,40.3,30.29,ESE,113,0.0,0.0,93,0.01,,,0.20,WUHU216HW,2013-01-31 14:51:00,
2013-01-31 06:56:00,42.2,40.3,30.29,ESE,113,0.0,0.0,93,0.02,,,0.20,WUHU216HW,2013-01-31 14:56:00,
2013-01-31 07:01:00,42.2,40.3,30.28,East,90,0.7,0.7,93,0.01,,,0.21,WUHU216HW,2013-01-31 15:01:00,
2013-01-31 07:06:00,42.4,40.5,30.29,ESE,113,0.2,1.3,93,0.01,,,0.21,WUHU216HW,2013-01-31 15:06:00,
2013-01-31 07:11:00,42.4,40.5,30.29,North,0,0.0,1.3,93,0.01,,,0.21,WUHU216HW,2013-01-31 15:11:00,
2013-01-31 07:16:00,42.4,40.5,30.29,NW,315,0.2,0.7,93,0.01,,,0.21,WUHU216HW,2013-01-31 15:16:00,
2013-01-31 07:21:00,42.2,40.3,30.29,NW,315,0.0,0.7,93,0.01,,,0.21,WUHU216HW,2013-01-31 15:21:00,
2013-01-31 07:26:00,42.2,40.3,30.29,ESE,113,0.9,0.9,93,0.01,,,0.21,WUHU216HW,2013-01-31 15:26:00,
2013-01-31 07:31:00,42.4,40.5,30.29,ESE,113,0.0,0.9,93,0.01,,,0.21,WUHU216HW,2013-01-31 15:31:00,
2013-01-31 07:36:00,42.4,40.5,30.29,ESE,113,0.9,0.9,93,0.02,,,0.23,WUHU216HW,2013-01-31 15:36:00,
2013-01-31 07:41:00,42.4,40.5,30.29,SW,225,1.1,2.5,93,0.02,,,0.23,WUHU216HW,2013-01-31 15:41:00,
2013-01-31 07:46:00,42.6,40.7,30.29,South,180,0.0,2.5,93,0.02,,,0.23,WUHU216HW,2013-01-31 15:46:00,
2013-01-31 07:51:00,42.6,40.7,30.29,SW,225,1.3,1.3,93,0.02,,,0.23,WUHU216HW,2013-01-31 15:51:00,
2013-01-31 07:56:00,42.8,40.9,30.29,South,180,1.8,2.0,93,0.01,,,0.23,WUHU216HW,2013-01-31 15:56:00,
2013-01-31 08:01:00,42.8,40.9,30.30,SE,135,1.6,2.5,93,0.01,,,0.23,WUHU216HW,2013-01-31 16:01:00,
2013-01-31 08:06:00,43.1,41.2,30.29,SW,225,0.9,2.5,93,0.01,,,0.23,WUHU216HW,2013-01-31 16:06:00,
2013-01-31 08:11:00,43.3,41.4,30.29,SE,135,0.0,3.8,93,0.01,,,0.23,WUHU216HW,2013-01-31 16:11:00,
2013-01-31 08:17:00,43.5,41.6,30.30,SE,135,1.1,3.8,93,0.01,,,0.23,WUHU216HW,2013-01-31 16:17:00,
2013-01-31 08:22:00,43.5,41.6,30.29,ESE,113,0.0,2.7,93,0.01,,,0.23,WUHU216HW,2013-01-31 16:22:00,
2013-01-31 08:27:00,43.5,41.6,30.30,SE,135,0.9,2.7,93,0.01,,,0.23,WUHU216HW,2013-01-31 16:27:00,
2013-01-31 08:32:00,43.7,41.8,30.29,SE,135,0.2,2.5,93,0.01,,,0.23,WUHU216HW,2013-01-31 16:32:00,
2013-01-31 08:37:00,43.7,41.8,30.29,SSE,158,0.0,2.5,93,0.00,,,0.23,WUHU216HW,2013-01-31 16:37:00,
2013-01-31 08:42:00,43.9,42.0,30.29,SE,135,1.1,1.6,93,0.00,,,0.23,WUHU216HW,2013-01-31 16:42:00,
2013-01-31 08:47:00,43.9,42.0,30.30,SSE,158,2.2,2.2,93,0.00,,,0.23,WUHU216HW,2013-01-31 16:47:00,
2013-01-31 08:52:00,44.0,42.1,30.30,ESE,113,1.1,2.2,93,0.00,,,0.23,WUHU216HW,2013-01-31 16:52:00,
2013-01-31 08:57:00,44.0,42.1,30.30,SE,135,1.8,3.6,93,0.00,,,0.23,WUHU216HW,2013-01-31 16:57:00,
2013-01-31 09:02:00,44.0,42.1,30.30,ESE,113,1.8,3.6,93,0.00,,,0.23,WUHU216HW,2013-01-31 17:02:00,
2013-01-31 09:07:00,44.0,42.1,30.30,East,90,1.3,2.2,93,0.00,,,0.23,WUHU216HW,2013-01-31 17:07:00,
2013-01-31 09:12:00,44.0,41.8,30.30,SE,135,1.3,2.5,92,0.00,,,0.23,WUHU216HW,2013-01-31 17:12:00,
2013-01-31 09:17:00,43.9,41.7,30.30,SE,135,1.6,3.1,92,0.00,,,0.23,WUHU216HW,2013-01-31 17:17:00,
2013-01-31 09:22:00,43.7,41.5,30.30,ESE,113,2.7,3.8,92,0.00,,,0.23,WUHU216HW,2013-01-31 17:22:00,
2013-01-31 09:27:00,43.7,41.5,30.30,SE,135,2.5,3.8,92,0.00,,,0.23,WUHU216HW,2013-01-31 17:27:00,
2013-01-31 09:32:00,43.5,41.3,30.30,East,90,3.4,3.4,92,0.00,,,0.23,WUHU216HW,2013-01-31 17:32:00,
2013-01-31 09:37:00,43.5,41.3,30.30,SE,135,1.8,3.4,92,0.00,,,0.23,WUHU216HW,2013-01-31 17:37:00,
2013-01-31 09:42:00,43.5,41.3,30.30,ENE,68,2.2,3.4,92,0.00,,,0.23,WUHU216HW,2013-01-31 17:42:00,
2013-01-31 09:47:00,43.5,41.3,30.30,ESE,113,2.0,2.5,92,0.00,,,0.23,WUHU216HW,2013-01-31 17:47:00,
2013-01-31 09:52:00,43.5,41.3,30.30,East,90,1.8,2.5,92,0.00,,,0.23,WUHU216HW,2013-01-31 17:52:00,
2013-01-31 09:57:00,43.5,41.3,30.30,ESE,113,1.8,2.5,92,0.00,,,0.23,WUHU216HW,2013-01-31 17:57:00,
2013-01-31 10:02:00,43.5,41.3,30.30,East,90,1.8,2.5,92,0.00,,,0.23,WUHU216HW,2013-01-31 18:02:00,
2013-01-31 10:07:00,43.5,41.3,30.30,East,90,3.1,3.1,92,0.00,,,0.23,WUHU216HW,2013-01-31 18:07:00,
2013-01-31 10:12:00,43.5,41.3,30.30,East,90,1.1,3.4,92,0.01,,,0.23,WUHU216HW,2013-01-31 18:12:00,
2013-01-31 10:17:00,43.5,41.3,30.30,ESE,113,2.9,3.4,92,0.01,,,0.23,WUHU216HW,2013-01-31 18:17:00,
2013-01-31 10:18:00,43.5,41.3,30.30,ESE,113,1.3,3.4,92,0.01,,,0.23,WUHU216HW,2013-01-31 18:18:00,
2013-01-31 10:19:00,43.5,41.3,30.30,East,90,1.8,3.4,92,0.01,,,0.23,WUHU216HW,2013-01-31 18:19:00,
2013-01-31 10:20:00,43.5,41.3,30.30,ESE,113,2.0,3.4,92,0.01,,,0.23,WUHU216HW,2013-01-31 18:20:00,
2013-01-31 10:21:00,43.5,41.3,30.30,East,90,4.0,4.0,92,0.01,,,0.23,WUHU216HW,2013-01-31 18:21:00,
2013-01-31 10:22:00,43.5,41.3,30.30,ESE,113,1.6,4.0,92,0.01,,,0.23,WUHU216HW,2013-01-31 18:22:00,
2013-01-31 10:23:00,43.5,41.6,30.30,ESE,113,2.2,4.0,93,0.01,,,0.23,WUHU216HW,2013-01-31 18:23:00,
2013-01-31 10:24:00,43.5,41.3,30.30,SE,135,2.7,4.0,92,0.01,,,0.23,WUHU216HW,2013-01-31 18:24:00,
2013-01-31 10:25:00,43.5,41.3,30.30,ENE,68,2.0,4.0,92,0.01,,,0.23,WUHU216HW,2013-01-31 18:25:00,
2013-01-31 10:26:00,43.5,41.3,30.30,SE,135,2.7,4.0,92,0.01,,,0.23,WUHU216HW,2013-01-31 18:26:00,
2013-01-31 10:27:00,43.5,41.3,30.30,ESE,113,4.0,4.0,92,0.01,,,0.23,WUHU216HW,2013-01-31 18:27:00,
2013-01-31 10:28:00,43.5,41.3,30.30,ESE,113,3.6,4.0,92,0.01,,,0.23,WUHU216HW,2013-01-31 18:28:00,
2013-01-31 10:37:00,43.5,41.3,30.30,SE,135,0.4,4.0,92,0.01,,,0.23,WUHU216HW,2013-01-31 18:37:00,
2013-01-31 10:42:00,43.5,41.3,30.30,SE,135,2.0,2.9,92,0.01,,,0.23,WUHU216HW,2013-01-31 18:42:00,
2013-01-31 10:47:00,43.5,41.6,30.30,SE,135,2.2,4.0,93,0.02,,,0.23,WUHU216HW,2013-01-31 18:47:00,
2013-01-31 10:52:00,43.5,41.6,30.30,ESE,113,1.3,4.5,93,0.02,,,0.25,WUHU216HW,2013-01-31 18:52:00,
2013-01-31 10:57:00,43.5,41.6,30.30,East,90,1.8,4.5,93,0.02,,,0.25,WUHU216HW,2013-01-31 18:57:00,
2013-01-31 11:02:00,43.5,41.6,30.30,East,90,1.8,2.5,93,0.02,,,0.25,WUHU216HW,2013-01-31 19:02:00,
2013-01-31 11:07:00,43.7,41.5,30.30,ESE,113,1.8,3.4,92,0.03,,,0.25,WUHU216HW,2013-01-31 19:07:00,
2013-01-31 11:12:00,43.7,41.5,30.31,East,90,2.5,3.4,92,0.02,,,0.25,WUHU216HW,2013-01-31 19:12:00,
2013-01-31 11:17:00,43.7,41.5,30.31,SE,135,0.0,2.7,92,0.02,,,0.25,WUHU216HW,2013-01-31 19:17:00,
2013-01-31 11:22:00,43.7,41.5,30.30,East,90,0.7,2.2,92,0.02,,,0.25,WUHU216HW,2013-01-31 19:22:00,
2013-01-31 11:27:00,43.7,41.5,30.31,East,90,0.7,2.2,92,0.03,,,0.27,WUHU216HW,2013-01-31 19:27:00,
2013-01-31 11:32:00,43.9,41.7,30.30,SE,135,0.7,2.0,92,0.04,,,0.28,WUHU216HW,2013-01-31 19:32:00,
2013-01-31 11:37:00,43.9,42.0,30.30,ESE,113,1.1,2.2,93,0.05,,,0.29,WUHU216HW,2013-01-31 19:37:00,
2013-01-31 11:42:00,44.0,41.8,30.30,SE,135,2.5,4.5,92,0.06,,,0.30,WUHU216HW,2013-01-31 19:42:00,
2013-01-31 11:47:00,44.0,41.8,30.30,East,90,3.4,4.7,92,0.06,,,0.30,WUHU216HW,2013-01-31 19:47:00,
2013-01-31 11:52:00,44.0,41.8,30.29,ESE,113,2.5,4.7,92,0.07,,,0.32,WUHU216HW,2013-01-31 19:52:00,
2013-01-31 11:57:00,44.0,41.8,30.29,ENE,68,1.8,5.1,92,0.07,,,0.32,WUHU216HW,2013-01-31 19:57:00,
2013-01-31 12:02:00,44.2,42.0,30.29,ESE,113,4.7,5.1,92,0.08,,,0.32,WUHU216HW,2013-01-31 20:02:00,
2013-01-31 12:07:00,44.2,42.0,30.29,East,90,1.1,4.7,92,0.07,,,0.32,WUHU216HW,2013-01-31 20:07:00,
2013-01-31 12:12:00,44.2,42.0,30.29,East,90,4.5,4.5,92,0.07,,,0.32,WUHU216HW,2013-01-31 20:12:00,
2013-01-31 12:17:00,44.2,42.0,30.29,ESE,113,3.4,4.5,92,0.07,,,0.32,WUHU216HW,2013-01-31 20:17:00,
2013-01-31 12:22:00,44.0,41.5,30.28,ESE,113,4.7,4.7,91,0.08,,,0.32,WUHU216HW,2013-01-31 20:22:00,
2013-01-31 12:27:00,44.0,41.5,30.28,SE,135,3.4,4.9,91,0.07,,,0.34,WUHU216HW,2013-01-31 20:27:00,
2013-01-31 12:32:00,43.9,41.4,30.28,East,90,2.7,4.9,91,0.05,,,0.34,WUHU216HW,2013-01-31 20:32:00,
2013-01-31 12:38:00,43.9,41.7,30.28,SE,135,0.0,4.3,92,0.05,,,0.34,WUHU216HW,2013-01-31 20:38:00,
2013-01-31 12:43:00,43.9,41.7,30.28,SE,135,0.9,4.3,92,0.04,,,0.34,WUHU216HW,2013-01-31 20:43:00,
2013-01-31 12:48:00,43.9,41.7,30.28,ENE,68,1.1,3.1,92,0.03,,,0.34,WUHU216HW,2013-01-31 20:48:00,
2013-01-31 12:53:00,43.9,41.7,30.28,East,90,2.9,3.4,92,0.02,,,0.34,WUHU216HW,2013-01-31 20:53:00,
2013-01-31 12:58:00,43.9,41.4,30.27,SE,135,2.5,5.6,91,0.01,,,0.34,WUHU216HW,2013-01-31 20:58:00,
2013-01-31 13:03:00,43.9,41.4,30.27,ENE,68,5.4,5.6,91,0.01,,,0.34,WUHU216HW,2013-01-31 21:03:00,
2013-01-31 13:08:00,43.9,41.4,30.27,ESE,113,4.0,5.4,91,0.01,,,0.34,WUHU216HW,2013-01-31 21:08:00,
2013-01-31 13:13:00,43.7,41.2,30.27,SSE,158,0.4,5.4,91,0.01,,,0.34,WUHU216HW,2013-01-31 21:13:00,
2013-01-31 13:18:00,43.9,41.4,30.27,East,90,1.6,2.5,91,0.01,,,0.34,WUHU216HW,2013-01-31 21:18:00,
2013-01-31 13:23:00,43.9,41.4,30.27,East,90,2.7,2.7,91,0.00,,,0.34,WUHU216HW,2013-01-31 21:23:00,
2013-01-31 13:28:00,44.0,41.5,30.27,ESE,113,2.5,3.4,91,0.00,,,0.34,WUHU216HW,2013-01-31 21:28:00,
2013-01-31 13:32:00,44.0,41.5,30.27,ESE,113,0.4,3.4,91,0.00,,,0.34,WUHU216HW,2013-01-31 21:32:00,
2013-01-31 13:38:00,44.2,41.7,30.27,ESE,113,1.6,2.7,91,0.00,,,0.34,WUHU216HW,2013-01-31 21:38:00,
2013-01-31 13:43:00,44.2,41.7,30.26,SE,135,1.3,2.7,91,0.00,,,0.34,WUHU216HW,2013-01-31 21:43:00,
2013-01-31 13:48:00,44.4,42.2,30.26,ESE,113,2.0,2.5,92,0.00,,,0.34,WUHU216HW,2013-01-31 21:48:00,
2013-01-31 13:53:00,44.4,42.2,30.26,East,90,1.8,2.5,92,0.00,,,0.34,WUHU216HW,2013-01-31 21:53:00,
2013-01-31 13:58:00,44.6,42.1,30.26,ESE,113,1.1,2.5,91,0.00,,,0.34,WUHU216HW,2013-01-31 21:58:00,
2013-01-31 14:03:00,44.4,41.9,30.26,SE,135,2.9,2.9,91,0.00,,,0.34,WUHU216HW,2013-01-31 22:03:00,
2013-01-31 14:07:00,44.4,41.9,30.26,SE,135,1.6,2.9,91,0.00,,,0.34,WUHU216HW,2013-01-31 22:07:00,
2013-01-31 14:12:00,44.2,41.7,30.25,SW,225,1.6,2.2,91,0.00,,,0.34,WUHU216HW,2013-01-31 22:12:00,
2013-01-31 14:17:00,44.2,41.7,30.25,SE,135,0.4,2.2,91,0.00,,,0.34,WUHU216HW,2013-01-31 22:17:00,
2013-01-31 14:22:00,44.2,41.7,30.25,SSE,158,1.8,2.9,91,0.00,,,0.34,WUHU216HW,2013-01-31 22:22:00,
2013-01-31 14:27:00,44.2,41.7,30.25,ESE,113,0.7,3.4,91,0.00,,,0.34,WUHU216HW,2013-01-31 22:27:00,
2013-01-31 14:32:00,44.2,41.7,30.25,SE,135,0.4,3.4,91,0.00,,,0.34,WUHU216HW,2013-01-31 22:32:00,
2013-01-31 14:37:00,44.2,41.7,30.25,South,180,0.4,4.0,91,0.00,,,0.34,WUHU216HW,2013-01-31 22:37:00,
2013-01-31 14:43:00,44.0,41.5,30.25,ENE,68,0.7,4.0,91,0.00,,,0.34,WUHU216HW,2013-01-31 22:43:00,
2013-01-31 14:47:00,44.0,41.5,30.25,South,180,0.2,3.4,91,0.00,,,0.34,WUHU216HW,2013-01-31 22:47:00,
2013-01-31 14:53:00,44.0,41.5,30.25,SSE,158,1.1,3.4,91,0.00,,,0.34,WUHU216HW,2013-01-31 22:53:00,
2013-01-31 14:58:00,44.0,41.5,30.25,ESE,113,3.4,3.4,91,0.00,,,0.34,WUHU216HW,2013-01-31 22:58:00,
2013-01-31 15:03:00,43.9,41.4,30.25,SSE,158,2.9,3.4,91,0.00,,,0.34,WUHU216HW,2013-01-31 23:03:00,
2013-01-31 15:07:00,43.9,41.4,30.25,SE,135,3.4,3.4,91,0.00,,,0.34,WUHU216HW,2013-01-31 23:07:00,
2013-01-31 15:12:00,43.9,41.4,30.25,ENE,68,3.8,4.7,91,0.00,,,0.34,WUHU216HW,2013-01-31 23:12:00,
2013-01-31 15:17:00,43.9,41.4,30.24,South,180,2.2,4.7,91,0.00,,,0.34,WUHU216HW,2013-01-31 23:17:00,
2013-01-31 15:22:00,43.9,41.4,30.24,East,90,0.7,2.2,91,0.00,,,0.34,WUHU216HW,2013-01-31 23:22:00,
2013-01-31 15:27:00,43.7,41.2,30.24,SE,135,2.7,2.7,91,0.00,,,0.34,WUHU216HW,2013-01-31 23:27:00,
2013-01-31 15:32:00,43.9,41.4,30.24,SE,135,0.7,3.8,91,0.00,,,0.34,WUHU216HW,2013-01-31 23:32:00,
2013-01-31 15:37:00,43.7,41.2,30.24,East,90,1.1,3.8,91,0.00,,,0.34,WUHU216HW,2013-01-31 23:37:00,
2013-01-31 15:42:00,43.7,41.2,30.24,East,90,1.8,4.5,91,0.00,,,0.34,WUHU216HW,2013-01-31 23:42:00,
2013-01-31 15:47:00,43.7,41.2,30.24,ESE,113,2.2,4.5,91,0.00,,,0.34,WUHU216HW,2013-01-31 23:47:00,
2013-01-31 15:52:00,43.7,41.2,30.24,SE,135,1.8,4.7,91,0.00,,,0.34,WUHU216HW,2013-01-31 23:52:00,
2013-01-31 15:57:00,43.5,41.0,30.24,SE,135,2.7,4.7,91,0.00,,,0.34,WUHU216HW,2013-01-31 23:57:00,
2013-01-31 16:03:00,43.5,41.0,30.25,SE,135,1.8,2.9,91,0.00,,,0.34,WUHU216HW,2013-02-01 00:03:00,
2013-01-31 16:08:00,43.5,41.0,30.25,East,90,2.0,3.8,91,0.00,,,0.34,WUHU216HW,2013-02-01 00:08:00,
2013-01-31 16:13:00,43.5,41.3,30.24,SE,135,1.6,3.8,92,0.00,,,0.34,WUHU216HW,2013-02-01 00:13:00,
2013-01-31 16:18:00,43.5,41.3,30.24,East,90,2.5,3.4,92,0.00,,,0.34,WUHU216HW,2013-02-01 00:18:00,
2013-01-31 16:23:00,43.5,41.0,30.24,East,90,2.7,2.9,91,0.00,,,0.34,WUHU216HW,2013-02-01 00:23:00,
2013-01-31 16:28:00,43.5,41.0,30.24,SE,135,0.4,4.3,91,0.00,,,0.34,WUHU216HW,2013-02-01 00:28:00,
2013-01-31 16:33:00,43.3,40.8,30.24,East,90,1.1,4.3,91,0.00,,,0.34,WUHU216HW,2013-02-01 00:33:00,
2013-01-31 16:38:00,43.5,41.0,30.24,ESE,113,0.0,1.8,91,0.00,,,0.34,WUHU216HW,2013-02-01 00:38:00,
2013-01-31 16:43:00,43.5,41.0,30.24,ESE,113,1.1,2.7,91,0.00,,,0.34,WUHU216HW,2013-02-01 00:43:00,
2013-01-31 16:48:00,43.5,41.0,30.24,SE,135,1.1,2.7,91,0.00,,,0.34,WUHU216HW,2013-02-01 00:48:00,
2013-01-31 16:53:00,43.5,41.0,30.24,SE,135,1.1,1.8,91,0.00,,,0.34,WUHU216HW,2013-02-01 00:53:00,
2013-01-31 16:58:00,43.3,40.8,30.24,SSE,158,0.2,1.8,91,0.00,,,0.34,WUHU216HW,2013-02-01 00:58:00,
2013-01-31 17:03:00,43.5,41.0,30.25,SSE,158,0.7,1.6,91,0.00,,,0.34,WUHU216HW,2013-02-01 01:03:00,
2013-01-31 17:08:00,43.5,41.0,30.24,South,180,0.0,0.7,91,0.00,,,0.34,WUHU216HW,2013-02-01 01:08:00,
2013-01-31 17:13:00,43.3,40.8,30.24,ESE,113,1.1,2.9,91,0.00,,,0.34,WUHU216HW,2013-02-01 01:13:00,
2013-01-31 17:18:00,43.3,40.8,30.24,ESE,113,2.5,2.9,91,0.00,,,0.34,WUHU216HW,2013-02-01 01:18:00,
2013-01-31 17:23:00,43.3,40.8,30.24,ENE,68,1.8,3.1,91,0.00,,,0.34,WUHU216HW,2013-02-01 01:23:00,
2013-01-31 17:28:00,43.3,40.8,30.24,ESE,113,0.9,3.1,91,0.01,,,0.35,WUHU216HW,2013-02-01 01:28:00,
2013-01-31 17:32:00,43.3,40.8,30.24,ESE,113,3.1,4.0,91,0.01,,,0.35,WUHU216HW,2013-02-01 01:32:00,
2013-01-31 17:38:00,43.1,40.9,30.25,NE,45,0.7,4.0,92,0.01,,,0.35,WUHU216HW,2013-02-01 01:38:00,
2013-01-31 17:43:00,43.1,40.9,30.25,ENE,68,2.2,2.9,92,0.01,,,0.35,WUHU216HW,2013-02-01 01:43:00,
2013-01-31 17:48:00,43.1,40.9,30.25,ESE,113,1.1,2.2,92,0.01,,,0.35,WUHU216HW,2013-02-01 01:48:00,
2013-01-31 17:53:00,43.1,40.9,30.25,SE,135,0.7,2.2,92,0.01,,,0.35,WUHU216HW,2013-02-01 01:53:00,
2013-01-31 17:58:00,43.1,40.9,30.24,SE,135,1.8,1.8,92,0.01,,,0.35,WUHU216HW,2013-02-01 01:58:00,
2013-01-31 18:03:00,43.1,40.9,30.24,SE,135,2.5,2.5,92,0.01,,,0.35,WUHU216HW,2013-02-01 02:03:00,
2013-01-31 18:08:00,43.1,40.9,30.24,SE,135,1.1,2.5,92,0.01,,,0.35,WUHU216HW,2013-02-01 02:08:00,
2013-01-31 18:13:00,43.1,40.9,30.24,SE,135,1.8,2.5,92,0.01,,,0.35,WUHU216HW,2013-02-01 02:13:00,
2013-01-31 18:18:00,43.1,40.9,30.24,SE,135,0.0,2.2,92,0.01,,,0.35,WUHU216HW,2013-02-01 02:18:00,
2013-01-31 18:23:00,43.3,41.1,30.24,SE,135,0.0,2.2,92,0.01,,,0.35,WUHU216HW,2013-02-01 02:23:00,
2013-01-31 18:28:00,43.5,41.3,30.24,SE,135,0.0,0.4,92,0.00,,,0.35,WUHU216HW,2013-02-01 02:28:00,
2013-01-31 18:33:00,43.5,41.3,30.24,NE,45,1.1,1.1,92,0.00,,,0.35,WUHU216HW,2013-02-01 02:33:00,
2013-01-31 18:38:00,43.5,41.3,30.24,SSE,158,1.1,2.5,92,0.00,,,0.35,WUHU216HW,2013-02-01 02:38:00,
2013-01-31 18:43:00,43.5,41.3,30.24,East,90,1.1,2.9,92,0.00,,,0.35,WUHU216HW,2013-02-01 02:43:00,
2013-01-31 18:48:00,43.3,41.1,30.24,NE,45,0.4,2.9,92,0.00,,,0.35,WUHU216HW,2013-02-01 02:48:00,
2013-01-31 18:53:00,43.3,41.1,30.24,SE,135,0.9,2.5,92,0.00,,,0.35,WUHU216HW,2013-02-01 02:53:00,
2013-01-31 18:58:00,43.3,41.1,30.24,East,90,0.9,2.5,92,0.00,,,0.35,WUHU216HW,2013-02-01 02:58:00,
2013-01-31 19:03:00,43.3,41.1,30.24,ENE,68,0.2,1.8,92,0.00,,,0.35,WUHU216HW,2013-02-01 03:03:00,
2013-01-31 19:08:00,43.3,41.1,30.24,ESE,113,1.1,1.8,92,0.00,,,0.35,WUHU216HW,2013-02-01 03:08:00,
2013-01-31 19:13:00,43.3,41.1,30.24,SE,135,0.4,1.8,92,0.00,,,0.35,WUHU216HW,2013-02-01 03:13:00,
2013-01-31 19:18:00,43.3,41.1,30.24,ENE,68,0.4,1.8,92,0.00,,,0.35,WUHU216HW,2013-02-01 03:18:00,
2013-01-31 19:23:00,43.3,41.1,30.24,SE,135,0.0,1.8,92,0.00,,,0.35,WUHU216HW,2013-02-01 03:23:00,
2013-01-31 19:28:00,43.1,40.9,30.24,NNE,23,1.1,1.1,92,0.00,,,0.35,WUHU216HW,2013-02-01 03:28:00,
2013-01-31 19:33:00,43.1,40.9,30.24,NNW,338,0.2,1.3,92,0.00,,,0.35,WUHU216HW,2013-02-01 03:33:00,
2013-01-31 19:38:00,43.0,40.8,30.24,ESE,113,2.7,2.7,92,0.00,,,0.35,WUHU216HW,2013-02-01 03:38:00,
2013-01-31 19:43:00,43.0,40.8,30.24,ESE,113,1.8,2.7,92,0.00,,,0.35,WUHU216HW,2013-02-01 03:43:00,
2013-01-31 19:48:00,43.0,40.8,30.24,ESE,113,2.5,2.5,92,0.00,,,0.35,WUHU216HW,2013-02-01 03:48:00,
2013-01-31 19:53:00,43.1,41.2,30.24,ENE,68,1.6,2.5,93,0.00,,,0.35,WUHU216HW,2013-02-01 03:53:00,
2013-01-31 19:58:00,43.1,40.9,30.24,ENE,68,0.4,1.6,92,0.00,,,0.35,WUHU216HW,2013-02-01 03:58:00,
2013-01-31 20:03:00,43.1,40.9,30.24,NE,45,0.2,0.9,92,0.00,,,0.35,WUHU216HW,2013-02-01 04:03:00,
2013-01-31 20:08:00,43.1,40.9,30.24,NE,45,0.2,0.9,92,0.00,,,0.35,WUHU216HW,2013-02-01 04:08:00,
2013-01-31 20:13:00,43.0,40.8,30.24,NNW,338,0.4,0.4,92,0.00,,,0.35,WUHU216HW,2013-02-01 04:13:00,
2013-01-31 20:18:00,43.0,40.8,30.24,North,0,0.4,0.4,92,0.00,,,0.35,WUHU216HW,2013-02-01 04:18:00,
2013-01-31 20:23:00,42.8,40.6,30.24,North,0,0.0,0.4,92,0.00,,,0.35,WUHU216HW,2013-02-01 04:23:00,
2013-01-31 20:28:00,42.8,40.6,30.24,North,0,0.0,0.0,92,0.00,,,0.35,WUHU216HW,2013-02-01 04:28:00,
2013-01-31 20:33:00,42.8,40.6,30.25,North,0,0.0,0.0,92,0.00,,,0.35,WUHU216HW,2013-02-01 04:33:00,
2013-01-31 20:38:00,43.0,40.8,30.24,ESE,113,0.4,0.4,92,0.00,,,0.35,WUHU216HW,2013-02-01 04:38:00,
2013-01-31 20:43:00,42.8,40.6,30.24,East,90,0.0,1.6,92,0.00,,,0.35,WUHU216HW,2013-02-01 04:43:00,
2013-01-31 20:48:00,42.8,40.6,30.24,East,90,0.0,1.6,92,0.00,,,0.35,WUHU216HW,2013-02-01 04:48:00,
2013-01-31 20:53:00,42.8,40.6,30.24,East,90,0.0,0.2,92,0.00,,,0.35,WUHU216HW,2013-02-01 04:53:00,
2013-01-31 20:58:00,42.8,40.6,30.24,East,90,0.0,0.2,92,0.00,,,0.35,WUHU216HW,2013-02-01 04:58:00,
2013-01-31 21:00:00,42.8,40.6,30.24,East,90,0.0,0.2,92,0.00,,,0.35,WUHU216HW,2013-02-01 05:00:00,
2013-01-31 21:01:00,42.8,40.6,30.24,East,90,0.0,0.2,92,0.00,,,0.35,WUHU216HW,2013-02-01 05:01:00,
2013-01-31 21:03:00,42.8,40.6,30.24,East,90,0.0,0.2,92,0.00,,,0.35,WUHU216HW,2013-02-01 05:03:00,
2013-01-31 21:08:00,42.8,40.6,30.24,East,90,0.0,0.0,92,0.00,,,0.35,WUHU216HW,2013-02-01 05:08:00,
2013-01-31 21:13:00,42.8,40.6,30.24,East,90,0.0,0.0,92,0.00,,,0.35,WUHU216HW,2013-02-01 05:13:00,
2013-01-31 21:18:00,42.8,40.6,30.24,ENE,68,0.2,0.4,92,0.00,,,0.35,WUHU216HW,2013-02-01 05:18:00,
2013-01-31 21:23:00,42.8,40.6,30.24,NE,45,1.6,1.6,92,0.00,,,0.35,WUHU216HW,2013-02-01 05:23:00,
2013-01-31 21:28:00,42.6,40.4,30.24,NNE,23,0.9,1.6,92,0.00,,,0.35,WUHU216HW,2013-02-01 05:28:00,
2013-01-31 21:33:00,42.6,40.4,30.24,ENE,68,0.0,1.3,92,0.00,,,0.35,WUHU216HW,2013-02-01 05:33:00,
2013-01-31 21:38:00,42.6,40.4,30.24,ESE,113,0.0,1.3,92,0.00,,,0.35,WUHU216HW,2013-02-01 05:38:00,
2013-01-31 21:43:00,42.6,40.4,30.24,NE,45,0.0,1.3,92,0.00,,,0.35,WUHU216HW,2013-02-01 05:43:00,
2013-01-31 21:48:00,42.6,40.4,30.24,NE,45,0.0,0.4,92,0.00,,,0.35,WUHU216HW,2013-02-01 05:48:00,
2013-01-31 21:53:00,42.6,40.4,30.24,NE,45,0.0,0.0,92,0.00,,,0.35,WUHU216HW,2013-02-01 05:53:00,
2013-01-31 21:58:00,42.6,40.4,30.25,NE,45,0.0,0.0,92,0.00,,,0.35,WUHU216HW,2013-02-01 05:58:00,
2013-01-31 22:03:00,42.8,40.6,30.25,SE,135,0.0,0.0,92,0.00,,,0.35,WUHU216HW,2013-02-01 06:03:00,
2013-01-31 22:08:00,42.8,40.6,30.25,SE,135,0.0,0.0,92,0.00,,,0.35,WUHU216HW,2013-02-01 06:08:00,
2013-01-31 22:13:00,42.8,40.6,30.25,SE,135,0.0,0.0,92,0.00,,,0.35,WUHU216HW,2013-02-01 06:13:00,
2013-01-31 22:18:00,42.8,40.6,30.25,SE,135,0.0,0.0,92,0.00,,,0.35,WUHU216HW,2013-02-01 06:18:00,
2013-01-31 22:23:00,42.8,40.6,30.25,SE,135,0.0,0.0,92,0.00,,,0.35,WUHU216HW,2013-02-01 06:23:00,
2013-01-31 22:28:00,42.8,40.6,30.25,SE,135,0.0,0.0,92,0.00,,,0.35,WUHU216HW,2013-02-01 06:28:00,
2013-01-31 22:33:00,42.8,40.6,30.25,SE,135,0.4,0.4,92,0.00,,,0.35,WUHU216HW,2013-02-01 06:33:00,
2013-01-31 22:38:00,42.6,40.1,30.25,ESE,113,0.2,1.1,91,0.00,,,0.35,WUHU216HW,2013-02-01 06:38:00,
2013-01-31 22:43:00,42.6,40.1,30.25,ESE,113,0.0,1.1,91,0.00,,,0.35,WUHU216HW,2013-02-01 06:43:00,
2013-01-31 22:48:00,42.4,39.9,30.25,ESE,113,0.0,0.0,91,0.00,,,0.35,WUHU216HW,2013-02-01 06:48:00,
2013-01-31 22:53:00,42.4,39.9,30.24,ESE,113,0.0,0.0,91,0.00,,,0.35,WUHU216HW,2013-02-01 06:53:00,
2013-01-31 22:59:00,42.4,39.9,30.24,ESE,113,0.0,0.2,91,0.00,,,0.35,WUHU216HW,2013-02-01 06:59:00,
2013-01-31 23:04:00,42.4,39.9,30.24,NNE,23,0.0,0.2,91,0.00,,,0.35,WUHU216HW,2013-02-01 07:04:00,
2013-01-31 23:09:00,42.2,39.7,30.25,ESE,113,0.0,0.4,91,0.00,,,0.35,WUHU216HW,2013-02-01 07:09:00,
2013-01-31 23:14:00,42.2,39.7,30.25,ESE,113,0.0,0.4,91,0.01,,,0.35,WUHU216HW,2013-02-01 07:14:00,
2013-01-31 23:19:00,42.2,39.7,30.25,ESE,113,0.0,0.0,91,0.01,,,0.36,WUHU216HW,2013-02-01 07:19:00,
2013-01-31 23:24:00,42.1,39.6,30.25,ESE,113,0.0,0.0,91,0.01,,,0.36,WUHU216HW,2013-02-01 07:24:00,
2013-01-31 23:29:00,42.1,39.6,30.25,ESE,113,0.0,0.0,91,0.01,,,0.36,WUHU216HW,2013-02-01 07:29:00,
2013-01-31 23:34:00,42.1,39.6,30.26,ESE,113,0.0,0.0,91,0.01,,,0.36,WUHU216HW,2013-02-01 07:34:00,
2013-01-31 23:39:00,42.1,39.6,30.25,ESE,113,0.0,0.0,91,0.01,,,0.36,WUHU216HW,2013-02-01 07:39:00,
2013-01-31 23:44:00,42.1,39.6,30.26,ESE,113,0.0,0.0,91,0.01,,,0.36,WUHU216HW,2013-02-01 07:44:00,
2013-01-31 23:49:00,42.1,39.9,30.25,ESE,113,0.0,0.0,92,0.01,,,0.36,WUHU216HW,2013-02-01 07:49:00,
2013-01-31 23:54:00,42.1,39.9,30.25,ESE,113,0.0,0.0,92,0.01,,,0.36,WUHU216HW,2013-02-01 07:54:00,
2013-01-31 23:59:00,42.1,39.9,30.26,ESE,113,0.0,0.0,92,0.01,,,0.36,WUHU216HW,2013-02-01 07:59:00,